KLAF/LAF METAR and TAF weather

Enter ICAO airport designator
Station Type Date Time Source
KLAF METAR 2019/02/23 00:54 UTC NOAA

KLAF 230054Z 09011KT 9SM OVC090 02/M02 A3032 RMK AO2 SLP272 T00221017


Station Type Date Time Source
KLAF Decoded METAR 2019/02/23 00:54 UTC NOAA

LAFAYETTE PURDUE UNIV AIRPORT , IN, United States (KLAF) 40-25N 86-57W 182M
Feb 22, 2019 - 07:54 PM EST / 2019.02.23 0054 UTC
Wind: from the E (090 degrees) at 13 MPH (11 KT):0
Visibility: 9 mile(s):0
Sky conditions: overcast
Temperature: 36.0 F (2.2 C)
Dew Point: 28.9 F (-1.7 C)
Relative Humidity: 75%
Pressure (altimeter): 30.32 in. Hg (1026 hPa)
ob: KLAF 230054Z 09011KT 9SM OVC090 02/M02 A3032 RMK AO2 SLP272 T00221017
cycle: 1

Station Type Date Time Source
KLAF TAF 2019/02/22 18:22 UTC NOAA

TAF KLAF 221720Z 2218/2318 09008KT P6SM BKN250
FM231000 10008KT P6SM OVC050
FM231200 10008KT 6SM -SHRA OVC035
FM231300 11008KT 6SM -SHRA OVC020


Example: see airport list